Time;durP1;ratioP1;P1;durP2;ratioP2;P2;SDS_P1;SDS_P2;PMS_P1;PMS_P2;Temp;Humidity;BMP_temperature;BMP_pressure;BME280_temperature;BME280_humidity;BME280_pressure;Samples;Min_cycle;Max_cycle;Signal;HPM_P1;HPM_P2
2023/06/05 00:01:17;;;;;;;13.23;3.65;;;;;;;18.50;52.05;101282.66;5013803;28;20510;-67
2023/06/05 00:03:45;;;;;;;14.48;3.10;;;;;;;18.67;51.63;101284.38;5013465;28;20053;-66
2023/06/05 00:06:12;;;;;;;11.00;3.30;;;;;;;18.56;51.69;101286.84;5011526;28;20061;-65
2023/06/05 00:08:40;;;;;;;8.82;3.10;;;;;;;18.71;51.68;101277.72;5013104;28;20058;-65
2023/06/05 00:11:07;;;;;;;13.55;3.72;;;;;;;18.56;52.15;101275.69;5013698;28;20050;-66
2023/06/05 00:13:35;;;;;;;9.40;2.85;;;;;;;18.58;52.09;101278.94;5013431;28;20331;-67
2023/06/05 00:16:03;;;;;;;11.13;3.72;;;;;;;18.77;51.98;101284.69;5011875;28;20524;-66
2023/06/05 00:18:30;;;;;;;15.13;3.40;;;;;;;18.66;51.77;101286.34;5013222;28;20050;-66
2023/06/05 00:20:58;;;;;;;13.80;3.15;;;;;;;18.72;51.50;101286.91;5042569;28;20073;-65
2023/06/05 00:23:25;;;;;;;11.80;3.70;;;;;;;18.70;51.49;101280.88;5007989;28;20065;-66
2023/06/05 00:25:52;;;;;;;10.82;3.22;;;;;;;18.47;52.49;101272.22;5024044;28;20382;-66
2023/06/05 00:28:20;;;;;;;12.52;3.47;;;;;;;18.53;52.41;101286.72;5003071;28;20054;-66
2023/06/05 00:30:47;;;;;;;12.10;3.15;;;;;;;18.59;52.22;101285.31;5013162;28;20053;-65
2023/06/05 00:33:14;;;;;;;9.40;3.15;;;;;;;18.50;52.08;101279.88;5011290;28;20069;-65
2023/06/05 00:35:42;;;;;;;15.98;3.97;;;;;;;18.56;52.25;101281.25;4998863;28;20054;-66
2023/06/05 00:38:10;;;;;;;9.48;4.00;;;;;;;18.51;52.26;101284.31;5011184;28;20046;-66
2023/06/05 00:40:38;;;;;;;10.45;4.13;;;;;;;18.36;53.42;101287.78;5010911;28;20050;-66
2023/06/05 00:43:07;;;;;;;11.77;3.85;;;;;;;18.08;53.34;101286.09;5011910;28;20054;-67
2023/06/05 00:45:35;;;;;;;19.35;4.40;;;;;;;18.18;53.07;101282.81;4993542;28;20494;-66
2023/06/05 00:48:03;;;;;;;12.65;4.00;;;;;;;18.27;53.28;101286.28;5016527;28;20045;-65
2023/06/05 00:50:32;;;;;;;11.65;4.07;;;;;;;18.42;53.14;101286.41;5010364;28;20054;-66
2023/06/05 00:53:01;;;;;;;11.05;3.85;;;;;;;18.46;53.11;101286.53;4993816;28;20046;-66
2023/06/05 00:55:28;;;;;;;10.10;4.00;;;;;;;18.65;52.29;101281.13;4992826;28;20593;-65
2023/06/05 00:57:56;;;;;;;13.18;3.58;;;;;;;18.16;53.36;101280.38;5013109;28;20061;-66
2023/06/05 01:00:25;;;;;;;11.75;3.90;;;;;;;18.14;54.02;101279.91;5015058;28;20690;-66
2023/06/05 01:02:53;;;;;;;10.85;3.53;;;;;;;17.66;55.38;101282.72;5029826;28;20421;-66
2023/06/05 01:05:21;;;;;;;13.20;4.03;;;;;;;17.73;55.13;101277.41;5015387;28;20038;-66
2023/06/05 01:07:49;;;;;;;8.88;3.60;;;;;;;17.45;56.13;101274.41;5013876;28;20054;-66
2023/06/05 01:10:17;;;;;;;9.73;3.55;;;;;;;17.49;56.32;101283.75;5016020;28;20493;-66
2023/06/05 01:13:05;;;;;;;16.17;3.80;;;;;;;17.67;55.84;101285.16;4997669;28;20054;-65
2023/06/05 01:15:33;;;;;;;15.07;3.85;;;;;;;17.41;56.59;101279.06;5014215;28;20061;-66
2023/06/05 01:18:01;;;;;;;14.70;3.92;;;;;;;17.49;56.49;101285.69;5014385;28;20533;-65
2023/06/05 01:20:36;;;;;;;13.18;4.30;;;;;;;17.45;56.39;101284.75;4998089;28;20054;-65
2023/06/05 01:23:07;;;;;;;9.60;3.85;;;;;;;17.59;56.24;101286.06;5012819;28;20062;-65
2023/06/05 01:25:36;;;;;;;16.27;4.45;;;;;;;17.58;56.08;101286.41;5027633;28;20050;-65
2023/06/05 01:28:10;;;;;;;9.63;4.20;;;;;;;17.32;57.00;101285.88;4986893;28;20057;-65
2023/06/05 01:30:46;;;;;;;15.57;4.88;;;;;;;17.49;56.80;101286.53;5014856;28;20056;-64
2023/06/05 01:33:20;;;;;;;10.25;4.03;;;;;;;17.47;56.67;101280.47;5014313;28;20049;-65
2023/06/05 01:35:51;;;;;;;14.93;4.15;;;;;;;17.36;57.16;101276.50;5013633;28;20442;-65
2023/06/05 01:38:19;;;;;;;13.88;4.22;;;;;;;17.01;58.06;101280.00;5014031;28;20054;-65
2023/06/05 01:40:48;;;;;;;8.15;3.90;;;;;;;16.95;58.62;101278.56;4998613;28;20060;-65
2023/06/05 01:43:17;;;;;;;14.32;4.32;;;;;;;16.93;58.46;101292.81;4998401;28;20833;-66
2023/06/05 01:45:44;;;;;;;9.93;3.22;;;;;;;17.00;58.44;101284.72;5027151;28;20057;-65
2023/06/05 01:48:12;;;;;;;13.20;3.53;;;;;;;16.81;58.95;101278.88;5040282;28;20092;-65
2023/06/05 01:50:42;;;;;;;13.23;3.35;;;;;;;17.17;58.02;101280.97;4996069;28;20536;-65
2023/06/05 01:53:12;;;;;;;9.95;3.47;;;;;;;17.29;57.41;101287.41;5013007;28;20054;-65
2023/06/05 01:55:40;;;;;;;13.15;4.40;;;;;;;17.37;57.08;101280.06;5027234;28;20639;-65
2023/06/05 01:58:08;;;;;;;10.93;3.53;;;;;;;17.29;57.45;101279.03;4994260;28;20054;-65
2023/06/05 02:00:36;;;;;;;6.88;3.40;;;;;;;16.88;58.54;101279.13;5045166;28;20057;-65
2023/06/05 02:03:04;;;;;;;11.65;3.85;;;;;;;16.62;59.66;101268.25;4997059;28;20053;-65
2023/06/05 02:05:33;;;;;;;18.02;3.53;;;;;;;16.66;59.65;101269.19;4997578;28;20061;-64
2023/06/05 02:08:04;;;;;;;10.70;3.10;;;;;;;16.75;59.54;101260.78;5013534;28;20056;-66
2023/06/05 02:10:32;;;;;;;9.25;3.60;;;;;;;16.77;59.42;101264.03;5014651;28;20046;-65
2023/06/05 02:13:02;;;;;;;14.68;3.70;;;;;;;16.72;59.64;101262.25;5030279;28;20058;-65
2023/06/05 02:15:32;;;;;;;12.55;3.53;;;;;;;16.80;59.61;101263.34;5015501;28;20057;-66
2023/06/05 02:18:02;;;;;;;11.18;3.95;;;;;;;16.69;59.86;101268.50;5028098;28;20054;-66
2023/06/05 02:20:32;;;;;;;;;;;;;;;16.63;60.07;101261.50;5013458;28;20049;-66
2023/06/05 02:22:59;;;;;;;14.68;4.30;;;;;;;16.40;60.82;101257.44;5015030;28;19922;-65
2023/06/05 02:25:26;;;;;;;11.00;4.18;;;;;;;16.63;60.33;101267.06;5010389;28;20609;-65
2023/06/05 02:27:55;;;;;;;10.95;3.30;;;;;;;16.65;60.29;101266.72;5001939;28;20077;-66
2023/06/05 02:30:23;;;;;;;13.70;3.83;;;;;;;16.76;59.93;101268.78;5013573;28;20057;-67
2023/06/05 02:32:56;;;;;;;11.95;3.58;;;;;;;16.72;59.81;101267.81;5012082;28;20061;-66
2023/06/05 02:35:24;;;;;;;12.52;3.70;;;;;;;16.59;60.47;101257.00;5028418;28;20402;-66
2023/06/05 02:37:52;;;;;;;9.82;3.78;;;;;;;16.50;60.56;101265.41;5012682;28;20054;-66
2023/06/05 02:40:20;;;;;;;10.55;3.65;;;;;;;16.43;61.11;101259.53;5028565;28;20359;-65
2023/06/05 02:42:47;;;;;;;11.15;3.83;;;;;;;16.39;61.34;101264.16;5005614;28;20054;-65
2023/06/05 02:45:14;;;;;;;15.98;4.13;;;;;;;16.53;61.17;101263.91;5014547;28;20057;-66
2023/06/05 02:47:43;;;;;;;12.10;4.50;;;;;;;16.30;61.62;101260.59;5029901;28;20057;-66
2023/06/05 02:50:10;;;;;;;12.52;4.00;;;;;;;16.28;62.08;101260.16;5028204;28;20057;-66
2023/06/05 02:52:42;;;;;;;11.32;4.00;;;;;;;16.38;61.52;101259.75;5012788;28;20050;-65
2023/06/05 02:55:17;;;;;;;15.98;4.22;;;;;;;16.25;62.12;101262.81;5012949;28;20053;-66
2023/06/05 02:57:48;;;;;;;15.68;3.75;;;;;;;16.39;62.04;101257.75;5029519;28;20065;-65
2023/06/05 03:00:20;;;;;;;17.63;4.50;;;;;;;16.46;61.56;101258.88;5013038;28;20058;-66
2023/06/05 03:02:52;;;;;;;9.18;3.97;;;;;;;16.37;62.11;101257.31;5044845;28;20049;-67
2023/06/05 03:05:27;;;;;;;13.65;3.90;;;;;;;16.37;62.02;101254.53;5046020;28;20390;-66
2023/06/05 03:08:01;;;;;;;8.98;3.88;;;;;;;16.51;61.98;101255.91;5027503;28;20054;-66
2023/06/05 03:10:28;;;;;;;12.87;4.33;;;;;;;16.33;62.03;101254.41;5033459;28;20058;-66
2023/06/05 03:12:55;;;;;;;17.08;4.30;;;;;;;16.47;62.03;101256.94;5010553;28;20300;-66
2023/06/05 03:15:25;;;;;;;22.67;4.97;;;;;;;16.26;62.57;101253.28;5013091;28;20050;-65
2023/06/05 03:17:53;;;;;;;14.45;4.57;;;;;;;16.07;63.23;101256.53;4996052;28;20054;-66
2023/06/05 03:20:22;;;;;;;11.52;4.25;;;;;;;16.02;63.99;101261.47;5025782;28;20133;-66
2023/06/05 03:22:50;;;;;;;15.07;4.45;;;;;;;16.19;62.93;101261.34;5025828;28;20058;-65
2023/06/05 03:25:18;;;;;;;14.27;4.60;;;;;;;16.03;64.25;101263.09;5032510;28;20084;-65
2023/06/05 03:27:49;;;;;;;12.55;4.47;;;;;;;16.19;63.63;101259.41;5015156;28;20049;-65
2023/06/05 03:30:18;;;;;;;12.55;4.75;;;;;;;16.16;63.89;101262.03;5012772;28;20053;-65
2023/06/05 03:32:50;;;;;;;11.90;4.70;;;;;;;16.08;64.05;101260.94;5012349;28;20413;-67
2023/06/05 03:35:19;;;;;;;16.15;4.53;;;;;;;15.97;64.80;101256.91;5029035;28;20045;-66
2023/06/05 03:37:47;;;;;;;11.65;4.72;;;;;;;15.61;65.94;101260.22;5029901;28;20057;-66
2023/06/05 03:40:15;;;;;;;17.00;5.50;;;;;;;15.81;65.54;101264.22;4998024;28;20057;-66
2023/06/05 03:42:43;;;;;;;12.65;4.57;;;;;;;15.84;65.66;101263.53;5004893;28;20057;-66
2023/06/05 03:45:10;;;;;;;13.82;5.78;;;;;;;15.73;66.18;101260.34;5025755;28;20068;-66
2023/06/05 03:47:39;;;;;;;15.02;4.75;;;;;;;15.62;66.60;101263.84;5028511;28;20045;-66
2023/06/05 03:50:09;;;;;;;15.77;5.22;;;;;;;15.50;67.44;101258.97;5012300;28;20056;-66
2023/06/05 03:52:40;;;;;;;12.13;5.25;;;;;;;15.50;67.72;101261.75;5012494;28;20050;-67
2023/06/05 03:55:09;;;;;;;11.07;4.75;;;;;;;15.85;66.56;101258.81;5028231;28;20080;-66
2023/06/05 03:57:38;;;;;;;15.23;5.10;;;;;;;15.74;66.61;101264.72;5012821;28;20050;-67
2023/06/05 04:00:09;;;;;;;12.07;5.43;;;;;;;15.46;67.82;101263.53;5011918;28;20053;-66
2023/06/05 04:02:40;;;;;;;13.38;4.82;;;;;;;15.63;67.78;101271.00;4996866;28;20064;-65
2023/06/05 04:05:13;;;;;;;14.35;5.13;;;;;;;15.22;69.43;101271.59;5012057;28;20461;-66
2023/06/05 04:07:41;;;;;;;14.02;6.05;;;;;;;15.28;69.22;101270.28;5045291;28;20038;-66
2023/06/05 04:10:10;;;;;;;14.00;4.93;;;;;;;15.51;68.31;101273.66;4993842;28;20066;-64
2023/06/05 04:12:37;;;;;;;12.35;4.95;;;;;;;15.41;68.83;101279.59;5006970;28;20409;-66
2023/06/05 04:15:06;;;;;;;12.68;5.85;;;;;;;15.23;69.34;101273.25;4995383;28;20053;-66
2023/06/05 04:17:34;;;;;;;17.05;5.85;;;;;;;15.39;68.76;101273.53;5011970;28;20417;-66
2023/06/05 04:20:02;;;;;;;13.23;5.50;;;;;;;15.49;68.81;101270.41;5012726;28;20046;-65
2023/06/05 04:22:31;;;;;;;18.25;5.57;;;;;;;15.20;69.93;101275.88;5028274;28;20414;-65
2023/06/05 04:24:59;;;;;;;18.25;6.05;;;;;;;15.17;70.12;101276.50;5011482;28;20049;-65
2023/06/05 04:27:28;;;;;;;16.65;6.32;;;;;;;15.32;69.36;101276.81;5011716;28;20058;-64
2023/06/05 04:29:56;;;;;;;12.57;5.70;;;;;;;15.36;69.54;101274.19;4996000;28;20081;-66
2023/06/05 04:32:23;;;;;;;13.80;5.82;;;;;;;15.46;69.29;101279.41;4999384;28;20054;-66
2023/06/05 04:34:52;;;;;;;12.88;6.07;;;;;;;15.21;70.19;101286.63;5028886;28;20069;-66
2023/06/05 04:37:19;;;;;;;15.18;5.60;;;;;;;15.25;70.51;101284.84;4996663;28;20062;-65
2023/06/05 04:39:47;;;;;;;13.02;5.80;;;;;;;15.23;70.26;101281.56;5012322;28;20050;-66
2023/06/05 04:42:17;;;;;;;14.43;6.38;;;;;;;15.00;71.08;101282.94;5012476;28;20536;-66
2023/06/05 04:44:53;;;;;;;19.77;6.13;;;;;;;15.08;71.14;101287.63;5041904;28;20065;-66
2023/06/05 04:47:21;;;;;;;17.67;7.03;;;;;;;15.24;70.73;101287.91;5031781;28;20049;-67
2023/06/05 04:49:51;;;;;;;17.25;7.25;;;;;;;15.35;70.46;101294.75;5016700;28;20053;-66
2023/06/05 04:52:21;;;;;;;17.58;6.65;;;;;;;15.49;70.02;101285.09;5030869;28;20053;-65
2023/06/05 04:54:49;;;;;;;15.07;7.10;;;;;;;15.62;69.47;101283.28;5045825;28;20136;-67
2023/06/05 04:57:18;;;;;;;17.05;7.68;;;;;;;15.46;69.83;101287.75;5016318;28;20057;-67
2023/06/05 04:59:46;;;;;;;17.10;7.15;;;;;;;15.06;72.25;101294.66;5014809;28;20049;-66
2023/06/05 05:02:15;;;;;;;17.13;7.07;;;;;;;15.16;71.56;101294.31;4998440;28;20053;-66
2023/06/05 05:04:45;;;;;;;19.00;7.73;;;;;;;15.29;71.50;101290.53;5025203;28;20049;-68
2023/06/05 05:07:15;;;;;;;15.70;6.75;;;;;;;15.52;70.77;101297.50;5015194;28;20342;-66
2023/06/05 05:09:44;;;;;;;22.88;7.68;;;;;;;15.13;71.95;101290.22;5030982;28;20563;-66
2023/06/05 05:12:12;;;;;;;18.27;7.57;;;;;;;15.28;71.93;101286.13;5015036;28;20460;-65
2023/06/05 05:14:40;;;;;;;27.25;7.90;;;;;;;15.44;71.34;101281.69;5015362;28;20054;-67
2023/06/05 05:17:07;;;;;;;18.45;7.55;;;;;;;15.53;70.42;101280.50;5015426;28;20046;-66
2023/06/05 05:19:39;;;;;;;17.42;8.10;;;;;;;15.23;72.02;101286.31;5014791;28;20050;-65
2023/06/05 05:22:07;;;;;;;23.85;7.93;;;;;;;15.37;71.62;101292.47;5031083;28;20072;-66
2023/06/05 05:24:35;;;;;;;15.82;7.72;;;;;;;15.60;70.99;101291.91;5015628;28;20046;-66
2023/06/05 05:27:03;;;;;;;19.55;8.32;;;;;;;15.56;70.75;101295.69;5029330;28;20377;-69
2023/06/05 05:29:33;;;;;;;21.13;8.18;;;;;;;15.59;70.49;101290.28;5015154;28;20054;-66
2023/06/05 05:32:01;;;;;;;19.20;8.25;;;;;;;15.52;70.67;101289.16;5014271;28;20520;-65
2023/06/05 05:34:29;;;;;;;21.02;9.48;;;;;;;15.63;70.70;101291.25;5013603;28;20052;-66
2023/06/05 05:36:57;;;;;;;17.75;8.65;;;;;;;15.85;69.76;101297.72;5014574;28;20053;-66
2023/06/05 05:39:24;;;;;;;19.58;10.00;;;;;;;15.91;69.56;101293.56;5015276;28;20042;-67
2023/06/05 05:41:51;;;;;;;20.70;9.48;;;;;;;16.01;69.33;101295.97;5015704;28;20433;-66
2023/06/05 05:44:19;;;;;;;18.55;9.48;;;;;;;15.93;68.84;101299.63;5015895;28;20393;-66
2023/06/05 05:46:47;;;;;;;21.33;9.52;;;;;;;15.89;69.61;101301.41;5014883;28;20061;-66
2023/06/05 05:49:14;;;;;;;17.67;8.25;;;;;;;15.89;69.14;101293.09;5013943;28;20134;-65
2023/06/05 05:51:42;;;;;;;19.90;8.40;;;;;;;16.10;68.61;101300.31;5014912;28;20058;-65
2023/06/05 05:54:09;;;;;;;19.27;8.43;;;;;;;15.90;68.88;101301.06;5015104;28;20058;-66
2023/06/05 05:56:37;;;;;;;19.92;8.65;;;;;;;15.78;69.59;101300.97;5015536;28;20049;-66
2023/06/05 05:59:05;;;;;;;20.67;8.10;;;;;;;15.99;69.00;101309.41;4998212;28;20060;-65
2023/06/05 06:01:32;;;;;;;18.98;8.13;;;;;;;16.02;68.90;101305.94;5013156;28;20060;-66
2023/06/05 06:03:59;;;;;;;22.75;8.23;;;;;;;15.90;68.80;101301.06;5022684;28;20049;-65
2023/06/05 06:06:27;;;;;;;20.55;8.68;;;;;;;15.44;71.26;101317.78;5015713;28;20046;-65
2023/06/05 06:08:54;;;;;;;20.63;8.80;;;;;;;15.63;71.39;101313.47;5015266;28;20050;-65
2023/06/05 06:11:22;;;;;;;20.35;7.85;;;;;;;15.66;70.82;101312.81;5013213;28;20421;-65
2023/06/05 06:13:49;;;;;;;17.75;8.13;;;;;;;15.84;70.49;101312.72;5030129;28;20061;-67
2023/06/05 06:16:16;;;;;;;17.35;7.97;;;;;;;16.17;69.34;101311.72;5030533;28;20054;-67
2023/06/05 06:18:44;;;;;;;21.75;7.60;;;;;;;15.88;68.19;101314.53;5030061;28;20045;-66
2023/06/05 06:21:12;;;;;;;21.30;8.23;;;;;;;16.04;68.60;101310.00;5010777;28;20050;-66
2023/06/05 06:23:40;;;;;;;17.70;7.20;;;;;;;16.26;67.39;101312.50;5014158;28;20057;-65
2023/06/05 06:26:07;;;;;;;16.63;8.30;;;;;;;16.05;67.71;101314.44;5013823;28;20737;-66
2023/06/05 06:28:35;;;;;;;20.48;7.97;;;;;;;15.82;68.88;101310.28;5013419;28;20677;-65
2023/06/05 06:31:02;;;;;;;18.75;8.20;;;;;;;16.18;69.11;101332.00;5002400;28;20050;-65
2023/06/05 06:33:30;;;;;;;19.38;8.23;;;;;;;16.25;68.68;101315.63;5015828;28;20050;-65
2023/06/05 06:36:00;;;;;;;17.73;7.13;;;;;;;16.44;66.90;101321.53;5013759;28;20058;-63
2023/06/05 06:38:30;;;;;;;15.48;7.82;;;;;;;16.29;66.40;101327.66;5014454;28;20054;-63
2023/06/05 06:40:58;;;;;;;14.82;7.63;;;;;;;16.29;66.83;101320.16;5018870;28;20616;-67
2023/06/05 06:43:26;;;;;;;14.10;6.72;;;;;;;16.19;67.06;101320.56;5010591;28;20046;-64
2023/06/05 06:46:05;;;;;;;20.05;7.50;;;;;;;16.43;66.44;101326.28;5012466;28;20076;-67
2023/06/05 06:48:33;;;;;;;23.60;7.05;;;;;;;16.54;65.39;101312.81;5009238;28;20125;-66
2023/06/05 06:51:02;;;;;;;22.30;7.75;;;;;;;16.25;66.39;101321.97;5011836;28;20050;-68
2023/06/05 06:53:29;;;;;;;19.23;6.95;;;;;;;16.58;65.68;101320.13;5014625;28;20045;-66
2023/06/05 06:55:57;;;;;;;22.30;7.70;;;;;;;16.73;65.12;101327.88;5042792;28;20041;-67
2023/06/05 06:58:24;;;;;;;18.00;7.60;;;;;;;16.69;64.86;101324.16;5013137;28;20603;-66
2023/06/05 07:00:51;;;;;;;15.20;7.07;;;;;;;16.74;63.83;101317.56;5045512;28;20060;-67
2023/06/05 07:03:19;;;;;;;17.20;7.18;;;;;;;16.84;63.56;101314.38;5012514;28;20060;-67
2023/06/05 07:05:47;;;;;;;21.45;7.43;;;;;;;17.09;63.42;101321.66;5014753;28;20037;-67
2023/06/05 07:08:14;;;;;;;19.23;7.00;;;;;;;17.23;62.64;101316.59;5012789;28;20481;-66
2023/06/05 07:10:42;;;;;;;17.33;7.13;;;;;;;17.27;61.83;101319.50;5022360;28;20057;-69
2023/06/05 07:13:09;;;;;;;14.95;6.78;;;;;;;17.21;62.39;101310.56;5012460;28;20057;-65
2023/06/05 07:15:36;;;;;;;20.85;7.25;;;;;;;17.53;61.63;101328.44;5016632;28;20053;-65
2023/06/05 07:18:04;;;;;;;22.08;7.82;;;;;;;17.45;61.02;101320.97;5014053;28;20062;-66
2023/06/05 07:20:32;;;;;;;19.70;6.20;;;;;;;17.28;61.40;101330.31;5014261;28;20065;-66
2023/06/05 07:22:59;;;;;;;22.88;7.38;;;;;;;17.32;61.21;101324.88;5029620;28;20058;-66
2023/06/05 07:25:27;;;;;;;20.73;7.15;;;;;;;17.47;60.87;101321.47;5014113;28;20449;-65
2023/06/05 07:27:55;;;;;;;21.02;7.30;;;;;;;17.81;59.55;101323.81;5014467;28;20527;-66
2023/06/05 07:30:22;;;;;;;20.17;6.63;;;;;;;18.18;58.12;101330.22;5016383;28;20061;-68
2023/06/05 07:32:50;;;;;;;16.27;6.72;;;;;;;18.50;57.01;101318.94;5012629;28;20053;-66
2023/06/05 07:35:17;;;;;;;16.17;7.07;;;;;;;18.87;55.56;101320.47;5012463;28;20057;-67
2023/06/05 07:37:45;;;;;;;19.63;5.93;;;;;;;19.17;54.62;101331.25;5013514;28;20049;-65
2023/06/05 07:40:12;;;;;;;16.23;6.35;;;;;;;18.94;54.62;101331.00;5013559;28;20236;-66
2023/06/05 07:42:40;;;;;;;14.88;6.57;;;;;;;18.94;54.45;101326.25;5012089;28;20052;-67
2023/06/05 07:45:08;;;;;;;18.17;6.40;;;;;;;19.04;54.31;101327.72;5012818;28;20049;-66
2023/06/05 07:47:35;;;;;;;25.75;6.80;;;;;;;19.14;53.87;101323.59;5011828;28;20049;-67
2023/06/05 07:50:05;;;;;;;16.95;6.28;;;;;;;18.97;53.40;101319.13;5013664;28;20042;-67
2023/06/05 07:52:32;;;;;;;22.60;6.53;;;;;;;19.29;53.40;101332.03;5012027;28;20733;-65
2023/06/05 07:55:00;;;;;;;15.25;6.82;;;;;;;19.48;52.20;101321.00;5011318;28;20058;-65
2023/06/05 07:57:28;;;;;;;20.17;6.53;;;;;;;19.35;52.47;101322.25;5013864;28;20171;-65
2023/06/05 07:59:56;;;;;;;14.60;6.25;;;;;;;19.94;51.47;101316.59;5012708;28;20137;-65
2023/06/05 08:02:23;;;;;;;15.00;6.30;;;;;;;20.03;50.69;101309.63;5019033;28;20052;-65
2023/06/05 08:04:51;;;;;;;17.42;6.22;;;;;;;20.22;49.89;101306.13;4996262;28;20065;-66
2023/06/05 08:07:18;;;;;;;19.30;6.20;;;;;;;20.16;49.58;101315.97;5028336;28;20053;-66
2023/06/05 08:09:46;;;;;;;22.58;6.50;;;;;;;19.90;50.77;101310.09;4995081;28;20046;-65
2023/06/05 08:12:13;;;;;;;20.85;6.55;;;;;;;19.87;51.17;101308.84;5013019;28;20046;-65
2023/06/05 08:14:40;;;;;;;14.48;6.10;;;;;;;20.20;51.14;101302.06;5013992;28;20049;-66
2023/06/05 08:17:08;;;;;;;19.75;6.38;;;;;;;20.21;50.53;101301.69;5013535;28;20068;-66
2023/06/05 08:19:35;;;;;;;14.07;6.55;;;;;;;20.45;50.16;101301.44;5012903;28;20046;-65
2023/06/05 08:22:04;;;;;;;18.58;5.82;;;;;;;19.98;50.80;101306.28;5013270;28;20054;-65
2023/06/05 08:24:32;;;;;;;12.95;6.05;;;;;;;19.90;51.36;101301.72;5013458;28;20068;-69
2023/06/05 08:27:00;;;;;;;13.88;5.20;;;;;;;20.19;50.49;101294.88;5013393;28;20049;-66
2023/06/05 08:29:28;;;;;;;13.80;5.50;;;;;;;20.19;50.14;101303.25;5012291;28;20060;-66
2023/06/05 08:31:55;;;;;;;13.10;4.88;;;;;;;19.97;51.20;101307.47;5014216;28;20050;-66
2023/06/05 08:34:25;;;;;;;14.60;5.78;;;;;;;19.81;51.68;101299.09;5013737;28;20394;-65
2023/06/05 08:36:53;;;;;;;15.27;5.43;;;;;;;19.83;51.17;101304.34;5012342;28;20058;-65
2023/06/05 08:39:20;;;;;;;13.70;5.88;;;;;;;19.69;52.05;101303.97;5008407;28;20046;-68
2023/06/05 08:41:51;;;;;;;17.13;5.90;;;;;;;19.98;51.47;101309.09;5013563;28;20057;-65
2023/06/05 08:44:18;;;;;;;15.85;5.70;;;;;;;19.92;51.88;101303.00;5011367;28;20065;-66
2023/06/05 08:46:48;;;;;;;18.27;5.60;;;;;;;19.85;51.82;101304.78;5012597;28;20064;-67
2023/06/05 08:49:17;;;;;;;17.40;7.95;;;;;;;19.90;51.23;101302.53;5012811;28;20046;-65
2023/06/05 08:51:45;;;;;;;15.82;5.28;;;;;;;20.01;51.13;101309.19;5011578;28;20069;-65
2023/06/05 08:54:14;;;;;;;17.05;5.32;;;;;;;20.26;51.07;101301.41;5012628;28;20062;-64
2023/06/05 08:56:43;;;;;;;15.63;5.80;;;;;;;20.32;49.99;101301.94;5011578;28;20073;-65
2023/06/05 08:59:14;;;;;;;12.65;6.07;;;;;;;20.31;50.00;101305.94;5028472;28;20494;-66
2023/06/05 09:01:44;;;;;;;15.25;5.50;;;;;;;19.71;51.41;101301.63;5012735;28;20120;-66
2023/06/05 09:04:12;;;;;;;19.75;5.70;;;;;;;19.83;51.69;101307.13;4992141;28;20054;-66
2023/06/05 09:06:39;;;;;;;16.95;6.20;;;;;;;19.86;51.71;101298.84;4994193;28;20042;-67
2023/06/05 09:09:09;;;;;;;16.38;5.88;;;;;;;20.25;51.02;101296.19;5010678;28;20414;-65
2023/06/05 09:11:38;;;;;;;16.98;5.25;;;;;;;20.17;50.22;101287.63;5001284;28;20046;-67
2023/06/05 09:14:05;;;;;;;14.13;4.87;;;;;;;20.15;49.81;101294.75;5012579;28;20049;-66
2023/06/05 09:16:36;;;;;;;21.60;6.45;;;;;;;20.14;50.11;101291.13;5014355;28;20058;-68
2023/06/05 09:19:03;;;;;;;;;;;;;;;19.95;51.12;101299.47;5016916;28;20050;-67
2023/06/05 09:21:31;;;;;;;20.02;5.68;;;;;;;20.01;51.07;101286.03;5016447;28;20270;-66
2023/06/05 09:24:16;;;;;;;23.10;5.53;;;;;;;20.15;50.47;101286.34;5031255;28;20061;-66
2023/06/05 09:26:57;;;;;;;9.98;4.75;;;;;;;20.41;49.40;101283.78;5016255;28;20053;-66
2023/06/05 09:29:32;;;;;;;17.13;5.07;;;;;;;20.63;49.47;101285.06;5012175;28;20409;-66
2023/06/05 09:32:02;;;;;;;17.80;5.03;;;;;;;20.89;48.58;101282.41;5015867;28;20143;-66
2023/06/05 09:34:31;;;;;;;15.07;5.27;;;;;;;20.84;48.62;101280.72;5014981;28;20057;-67
2023/06/05 09:37:00;;;;;;;24.27;10.48;;;;;;;20.68;48.83;101285.56;5016110;28;20058;-67
2023/06/05 09:39:29;;;;;;;25.13;6.18;;;;;;;20.74;49.33;101286.91;5014932;28;20050;-67
2023/06/05 09:41:58;;;;;;;17.73;6.05;;;;;;;20.75;48.77;101277.31;5016387;28;20046;-67
2023/06/05 09:44:26;;;;;;;11.77;5.80;;;;;;;20.68;48.46;101277.19;5015475;28;20060;-66
2023/06/05 09:46:57;;;;;;;19.98;5.97;;;;;;;20.87;48.67;101274.38;5013134;28;20497;-66
2023/06/05 09:49:30;;;;;;;23.25;5.57;;;;;;;21.02;48.41;101270.72;5015458;28;20057;-66
2023/06/05 09:51:59;;;;;;;16.77;5.80;;;;;;;21.12;48.58;101269.28;5016193;28;20049;-65
2023/06/05 09:54:28;;;;;;;20.80;5.20;;;;;;;21.33;47.21;101261.28;5014488;28;20034;-66
2023/06/05 09:57:02;;;;;;;14.25;5.05;;;;;;;21.36;46.96;101259.75;5014878;28;20057;-66
2023/06/05 09:59:31;;;;;;;17.05;5.40;;;;;;;21.13;48.16;101273.75;5015710;28;20044;-65
2023/06/05 10:02:08;;;;;;;12.60;4.90;;;;;;;21.10;46.87;101278.06;5015110;28;20685;-64
2023/06/05 10:04:41;;;;;;;15.57;4.93;;;;;;;21.07;47.14;101267.63;5024382;28;20057;-65
2023/06/05 10:07:09;;;;;;;18.52;5.32;;;;;;;21.25;47.37;101262.34;5015697;28;20488;-64
2023/06/05 10:09:37;;;;;;;16.13;4.97;;;;;;;21.50;47.11;101280.41;5015205;28;20061;-65
2023/06/05 10:12:05;;;;;;;12.55;5.00;;;;;;;21.37;47.00;101272.56;5010615;28;20058;-64
2023/06/05 10:14:33;;;;;;;10.05;5.63;;;;;;;21.08;48.20;101263.63;5009780;28;20536;-65
2023/06/05 10:17:01;;;;;;;13.45;5.32;;;;;;;21.07;48.19;101266.81;4997611;28;20076;-64
2023/06/05 10:19:30;;;;;;;12.80;4.85;;;;;;;21.32;47.14;101256.88;5029233;28;20054;-66
2023/06/05 10:21:57;;;;;;;13.48;4.60;;;;;;;21.33;45.49;101264.09;5012932;28;20061;-66
2023/06/05 10:24:30;;;;;;;11.20;4.25;;;;;;;21.36;44.89;101257.72;5014980;28;20054;-67
2023/06/05 10:27:13;;;;;;;9.93;4.22;;;;;;;21.56;45.12;101250.09;5046222;28;20057;-67
2023/06/05 10:29:53;;;;;;;11.35;4.38;;;;;;;21.95;43.20;101252.34;5010355;28;20042;-65
2023/06/05 10:32:29;;;;;;;9.85;4.75;;;;;;;22.18;42.71;101253.13;5013021;28;20505;-65
2023/06/05 10:35:20;;;;;;;14.05;4.93;;;;;;;22.33;41.73;101252.13;5014513;28;20056;-66
2023/06/05 10:38:23;;;;;;;12.00;4.13;;;;;;;22.32;40.04;101249.69;5013228;28;20059;-67
2023/06/05 10:40:56;;;;;;;9.95;4.55;;;;;;;22.33;40.54;101252.13;5022113;28;20062;-65
2023/06/05 10:43:25;;;;;;;11.75;3.67;;;;;;;22.20;40.25;101253.56;5013552;28;20049;-66
2023/06/05 10:45:53;;;;;;;14.00;4.43;;;;;;;22.35;39.95;101246.94;4995651;28;20050;-67
2023/06/05 10:49:09;;;;;;;12.05;3.97;;;;;;;22.54;39.33;101237.63;5008543;28;20054;-66
2023/06/05 10:51:50;;;;;;;12.02;4.60;;;;;;;22.52;39.63;101247.56;5014768;28;20386;-67
2023/06/05 10:54:23;;;;;;;18.00;4.70;;;;;;;22.44;39.48;101229.81;4997039;28;20047;-67
2023/06/05 10:57:01;;;;;;;11.10;5.50;;;;;;;22.70;39.74;101224.16;5026713;28;20057;-66
2023/06/05 10:59:39;;;;;;;9.45;4.30;;;;;;;22.79;38.71;101223.84;5004861;28;20049;-66
2023/06/05 11:02:10;;;;;;;15.25;3.53;;;;;;;22.90;38.29;101220.00;4999779;28;20069;-65
2023/06/05 11:04:46;;;;;;;16.15;4.78;;;;;;;22.91;37.67;101232.03;5003052;28;20053;-66
2023/06/05 11:07:17;;;;;;;12.02;4.57;;;;;;;22.86;36.72;101209.88;5043902;28;20068;-65
2023/06/05 11:10:06;;;;;;;10.15;3.88;;;;;;;22.62;38.69;101224.47;5014003;28;20062;-66
2023/06/05 11:12:40;;;;;;;11.38;4.75;;;;;;;22.87;38.50;101211.53;4999470;28;20058;-66
2023/06/05 11:15:11;;;;;;;13.02;3.97;;;;;;;22.80;37.09;101206.66;5040555;28;20045;-66
2023/06/05 11:17:40;;;;;;;12.95;4.40;;;;;;;22.93;36.83;101212.78;5014183;28;20053;-66
2023/06/05 11:20:23;;;;;;;9.47;3.97;;;;;;;23.07;36.34;101204.50;5014607;28;20046;-65
2023/06/05 11:22:53;;;;;;;23.52;4.43;;;;;;;23.23;36.95;101193.81;5012060;28;20069;-65
2023/06/05 11:25:37;;;;;;;10.90;3.97;;;;;;;23.10;37.04;101198.13;5013423;28;20054;-66
2023/06/05 11:28:08;;;;;;;10.00;4.05;;;;;;;23.42;36.58;101188.81;5015447;28;20050;-68
2023/06/05 11:30:42;;;;;;;8.05;4.07;;;;;;;23.63;36.23;101196.63;5033924;28;20052;-68